Time;durP1;ratioP1;P1;durP2;ratioP2;P2;SDS_P1;SDS_P2;PMS_P1;PMS_P2;Temp;Humidity;BMP_temperature;BMP_pressure;BME280_temperature;BME280_humidity;BME280_pressure;Samples;Min_cycle;Max_cycle;Signal;HPM_P1;HPM_P2
2021/11/21 00:02:26;;;;;;;;;;;15.90;40.20;;;;;;8362749;28;20362;-47
2021/11/21 00:06:27;;;;;;;;;;;15.80;40.10;;;;;;8362618;28;20392;-49
2021/11/21 00:10:33;;;;;;;;;;;15.80;40.10;;;;;;8361595;28;19927;-47
2021/11/21 00:14:33;;;;;;;;;;;15.90;40.20;;;;;;8364769;28;20370;-48
2021/11/21 00:18:34;;;;;;;;;;;15.90;40.10;;;;;;8362471;28;20002;-48
2021/11/21 00:22:35;;;;;;;;;;;15.80;40.10;;;;;;8362498;28;19935;-48
2021/11/21 00:26:35;;;;;;;;;;;15.80;40.10;;;;;;8362285;28;19913;-49
2021/11/21 00:30:36;;;;;;;;;;;15.80;40.10;;;;;;8362730;28;20007;-47
2021/11/21 00:34:36;;;;;;;;;;;15.80;40.10;;;;;;8363120;28;19988;-47
2021/11/21 00:38:37;;;;;;;;;;;15.80;40.10;;;;;;8368021;28;19963;-48
2021/11/21 00:42:38;;;;;;;;;;;15.80;40.20;;;;;;8368308;28;19919;-48
2021/11/21 00:46:39;;;;;;;;;;;15.80;40.10;;;;;;8368416;28;20296;-46
2021/11/21 00:50:39;;;;;;;;;;;15.80;40.20;;;;;;8367569;28;19917;-51
2021/11/21 00:54:54;;;;;;;;;;;15.80;40.20;;;;;;8367841;28;19928;-47
2021/11/21 00:58:55;;;;;;;;;;;15.80;40.20;;;;;;8367716;28;20008;-47
2021/11/21 01:02:55;;;;;;;;;;;15.80;40.20;;;;;;8367277;28;19925;-47
2021/11/21 01:06:56;;;;;;;;;;;15.70;40.20;;;;;;8368101;28;19944;-47
2021/11/21 01:10:59;;;;;;;;;;;15.70;40.20;;;;;;8367417;28;19917;-47
2021/11/21 01:14:59;;;;;;;;;;;15.70;40.20;;;;;;8366665;28;19931;-48
2021/11/21 01:19:00;;;;;;;;;;;15.70;40.20;;;;;;8367502;28;20278;-47
2021/11/21 01:23:01;;;;;;;;;;;15.70;40.20;;;;;;8366903;28;19924;-48
2021/11/21 01:27:02;;;;;;;;;;;15.70;40.20;;;;;;8366916;28;20418;-46
2021/11/21 01:31:02;;;;;;;;;;;15.70;40.30;;;;;;8367107;28;20380;-46
2021/11/21 01:35:03;;;;;;;;;;;15.70;40.30;;;;;;8366687;28;19963;-50
2021/11/21 01:39:03;;;;;;;;;;;15.70;40.20;;;;;;8366169;28;20000;-48
2021/11/21 01:43:04;;;;;;;;;;;15.80;40.20;;;;;;8366678;28;19921;-46
2021/11/21 01:47:06;;;;;;;;;;;15.80;40.20;;;;;;8365494;28;19929;-45
2021/11/21 01:51:08;;;;;;;;;;;15.80;40.10;;;;;;8365731;28;19917;-48
2021/11/21 01:55:09;;;;;;;;;;;15.80;40.10;;;;;;8366074;28;19937;-47
2021/11/21 01:59:09;;;;;;;;;;;15.80;40.10;;;;;;8365869;28;19923;-46
2021/11/21 02:03:10;;;;;;;;;;;15.80;40.00;;;;;;8365513;28;19912;-47
2021/11/21 02:07:10;;;;;;;;;;;15.80;40.00;;;;;;8366176;28;19913;-48
2021/11/21 02:11:11;;;;;;;;;;;15.80;40.00;;;;;;8339361;28;20220;-47
2021/11/21 02:15:14;;;;;;;;;;;15.80;40.00;;;;;;8349399;28;19932;-47
2021/11/21 02:19:16;;;;;;;;;;;15.80;40.00;;;;;;8365183;28;19920;-49
2021/11/21 02:23:17;;;;;;;;;;;15.80;40.00;;;;;;8365108;28;19943;-47
2021/11/21 02:27:22;;;;;;;;;;;15.80;40.00;;;;;;8364846;28;19913;-49
2021/11/21 02:31:22;;;;;;;;;;;15.80;40.00;;;;;;8365105;28;20355;-47
2021/11/21 02:35:23;;;;;;;;;;;15.80;40.00;;;;;;8364664;28;19925;-47
2021/11/21 02:39:24;;;;;;;;;;;15.80;40.00;;;;;;8364232;28;19925;-46
2021/11/21 02:43:24;;;;;;;;;;;15.70;40.00;;;;;;8364565;28;19916;-47
2021/11/21 02:47:31;;;;;;;;;;;15.80;40.10;;;;;;8364323;28;19913;-48
2021/11/21 02:51:32;;;;;;;;;;;15.80;40.10;;;;;;8364044;28;19947;-49
2021/11/21 02:55:33;;;;;;;;;;;15.70;40.10;;;;;;8364033;28;19925;-47
2021/11/21 02:59:34;;;;;;;;;;;15.70;40.10;;;;;;8363370;28;19917;-47
2021/11/21 03:03:34;;;;;;;;;;;15.70;40.10;;;;;;8364213;28;19916;-47
2021/11/21 03:07:35;;;;;;;;;;;15.70;40.20;;;;;;8364543;28;19996;-47
2021/11/21 03:11:35;;;;;;;;;;;15.70;40.10;;;;;;8364001;28;19917;-46
2021/11/21 03:15:36;;;;;;;;;;;15.70;40.20;;;;;;8363474;28;19951;-47
2021/11/21 03:19:37;;;;;;;;;;;15.70;40.20;;;;;;8363546;28;19917;-47
2021/11/21 03:23:37;;;;;;;;;;;15.70;40.60;;;;;;8362918;28;19916;-46
2021/11/21 03:27:38;;;;;;;;;;;15.70;40.10;;;;;;8363494;28;19913;-47
2021/11/21 03:31:39;;;;;;;;;;;15.70;40.10;;;;;;8363568;28;19992;-46
2021/11/21 03:35:39;;;;;;;;;;;15.70;40.00;;;;;;8362849;28;19925;-47
2021/11/21 03:39:40;;;;;;;;;;;15.70;40.00;;;;;;8363045;28;19917;-47
2021/11/21 03:43:40;;;;;;;;;;;15.80;40.50;;;;;;8363050;28;19916;-47
2021/11/21 03:47:41;;;;;;;;;;;15.80;40.00;;;;;;8362688;28;19913;-49
2021/11/21 03:51:41;;;;;;;;;;;15.80;39.90;;;;;;8362937;28;20301;-48
2021/11/21 03:55:42;;;;;;;;;;;15.80;39.90;;;;;;8362604;28;20294;-48
2021/11/21 03:59:42;;;;;;;;;;;15.80;39.90;;;;;;8362400;28;19923;-49
2021/11/21 04:03:43;;;;;;;;;;;15.80;39.90;;;;;;8363045;28;19932;-49
2021/11/21 04:07:44;;;;;;;;;;;15.80;39.90;;;;;;8362478;28;19924;-49
2021/11/21 04:11:44;;;;;;;;;;;15.80;39.90;;;;;;8365460;28;19921;-47
2021/11/21 04:15:45;;;;;;;;;;;15.80;40.00;;;;;;8369041;28;19925;-47
2021/11/21 04:19:45;;;;;;;;;;;15.80;40.00;;;;;;8368986;28;20016;-47
2021/11/21 04:23:46;;;;;;;;;;;15.70;39.90;;;;;;8368815;28;19959;-49
2021/11/21 04:27:46;;;;;;;;;;;15.80;40.00;;;;;;8368747;28;19963;-48
2021/11/21 04:31:48;;;;;;;;;;;15.70;39.90;;;;;;8368837;28;19917;-50
2021/11/21 04:35:49;;;;;;;;;;;15.70;40.00;;;;;;8368085;28;19925;-47
2021/11/21 04:39:49;;;;;;;;;;;15.70;40.00;;;;;;8368317;28;19917;-48
2021/11/21 04:43:50;;;;;;;;;;;15.70;40.00;;;;;;8368520;28;19913;-48
2021/11/21 04:47:51;;;;;;;;;;;15.70;40.00;;;;;;8367710;28;20309;-48
2021/11/21 04:51:51;;;;;;;;;;;15.70;40.00;;;;;;8368296;28;20336;-48
2021/11/21 04:55:52;;;;;;;;;;;15.70;40.00;;;;;;8367681;28;19937;-47
2021/11/21 04:59:52;;;;;;;;;;;15.70;40.00;;;;;;8367489;28;19999;-48
2021/11/21 05:03:53;;;;;;;;;;;15.70;40.00;;;;;;8367911;28;19913;-48
2021/11/21 05:07:53;;;;;;;;;;;15.70;40.00;;;;;;8367802;28;20049;-48
2021/11/21 05:11:54;;;;;;;;;;;15.70;40.50;;;;;;8365992;28;19920;-47
2021/11/21 05:15:54;;;;;;;;;;;15.70;40.00;;;;;;8367292;28;19932;-47
2021/11/21 05:19:58;;;;;;;;;;;15.70;40.00;;;;;;8367219;28;19917;-47
2021/11/21 05:24:00;;;;;;;;;;;15.70;40.00;;;;;;8366590;28;19996;-48
2021/11/21 05:28:01;;;;;;;;;;;15.70;40.00;;;;;;8367121;28;20377;-48
2021/11/21 05:32:02;;;;;;;;;;;15.70;40.00;;;;;;8366834;28;19948;-48
2021/11/21 05:36:02;;;;;;;;;;;15.70;40.10;;;;;;8366198;28;19931;-47
2021/11/21 05:40:04;;;;;;;;;;;15.70;40.10;;;;;;8366777;28;20406;-47
2021/11/21 05:44:05;;;;;;;;;;;15.70;40.10;;;;;;8366854;28;20003;-47
2021/11/21 05:48:06;;;;;;;;;;;15.70;40.10;;;;;;8365826;28;19923;-47
2021/11/21 05:52:06;;;;;;;;;;;15.70;40.10;;;;;;8366599;28;19917;-47
2021/11/21 05:56:07;;;;;;;;;;;15.60;40.00;;;;;;8365815;28;19925;-49
2021/11/21 06:00:09;;;;;;;;;;;15.70;40.10;;;;;;8365530;28;19924;-48
2021/11/21 06:04:10;;;;;;;;;;;15.60;40.00;;;;;;8365876;28;19913;-48
2021/11/21 06:08:10;;;;;;;;;;;15.60;40.00;;;;;;8365833;28;19920;-48
2021/11/21 06:12:10;;;;;;;;;;;15.60;40.00;;;;;;8365322;28;19947;-47
2021/11/21 06:16:11;;;;;;;;;;;15.60;40.00;;;;;;8365431;28;20348;-47
2021/11/21 06:20:12;;;;;;;;;;;15.60;40.00;;;;;;8365358;28;20374;-47
2021/11/21 06:24:13;;;;;;;;;;;15.60;40.10;;;;;;8365092;28;19913;-48
2021/11/21 06:28:13;;;;;;;;;;;15.60;40.00;;;;;;8365015;28;20395;-50
2021/11/21 06:32:14;;;;;;;;;;;15.60;40.10;;;;;;8364511;28;19921;-48
2021/11/21 06:36:14;;;;;;;;;;;15.60;40.00;;;;;;8364372;28;19936;-48
2021/11/21 06:40:15;;;;;;;;;;;15.60;40.00;;;;;;8364847;28;19933;-50
2021/11/21 06:44:16;;;;;;;;;;;15.60;40.00;;;;;;8364947;28;20377;-48
2021/11/21 06:48:19;;;;;;;;;;;15.60;40.10;;;;;;8364106;28;19917;-48
2021/11/21 06:52:20;;;;;;;;;;;15.60;40.10;;;;;;8364349;28;19917;-49
2021/11/21 06:56:21;;;;;;;;;;;15.60;40.00;;;;;;8364107;28;19931;-48
2021/11/21 07:00:21;;;;;;;;;;;15.60;40.10;;;;;;8362200;28;19923;-49
2021/11/21 07:04:22;;;;;;;;;;;15.70;40.10;;;;;;8363107;28;19913;-48
2021/11/21 07:08:22;;;;;;;;;;;15.60;40.00;;;;;;8362411;28;19924;-48
2021/11/21 07:12:23;;;;;;;;;;;15.70;40.00;;;;;;8362080;28;19916;-49
2021/11/21 07:16:23;;;;;;;;;;;15.80;40.00;;;;;;8362515;28;19932;-48
2021/11/21 07:20:24;;;;;;;;;;;15.70;39.90;;;;;;8362244;28;19913;-49
2021/11/21 07:24:24;;;;;;;;;;;15.80;39.90;;;;;;8361868;28;20374;-49
2021/11/21 07:28:25;;;;;;;;;;;15.80;39.90;;;;;;8362243;28;20301;-49
2021/11/21 07:32:25;;;;;;;;;;;15.80;39.90;;;;;;8361971;28;19917;-50
2021/11/21 07:36:25;;;;;;;;;;;15.80;39.90;;;;;;8361414;28;19925;-48
2021/11/21 07:40:26;;;;;;;;;;;15.80;39.90;;;;;;8361827;28;19920;-48
2021/11/21 07:44:26;;;;;;;;;;;15.80;39.90;;;;;;8360670;28;20381;-48
2021/11/21 07:48:28;;;;;;;;;;;15.80;39.90;;;;;;8361220;28;20329;-48
2021/11/21 07:52:29;;;;;;;;;;;15.80;39.90;;;;;;8361539;28;19921;-51
2021/11/21 07:56:29;;;;;;;;;;;15.80;39.90;;;;;;8300458;28;1750957;-49
2021/11/21 08:00:29;;;;;;;;;;;15.70;39.90;;;;;;8362344;28;19917;-49
2021/11/21 08:04:30;;;;;;;;;;;15.70;39.90;;;;;;8363073;28;19916;-52
2021/11/21 08:08:31;;;;;;;;;;;15.70;39.90;;;;;;8361724;28;19928;-48
2021/11/21 08:12:31;;;;;;;;;;;15.70;40.00;;;;;;8362350;28;19939;-48
2021/11/21 08:16:32;;;;;;;;;;;15.80;40.00;;;;;;8362888;28;20316;-48
2021/11/21 08:20:32;;;;;;;;;;;15.70;40.00;;;;;;8362309;28;19916;-47
2021/11/21 08:24:33;;;;;;;;;;;15.70;40.00;;;;;;8362635;28;19917;-48
2021/11/21 08:28:34;;;;;;;;;;;15.70;40.00;;;;;;8362672;28;20354;-47
2021/11/21 08:32:35;;;;;;;;;;;15.70;40.00;;;;;;8362043;28;19916;-49
2021/11/21 08:36:35;;;;;;;;;;;15.70;40.00;;;;;;8362673;28;19927;-51
2021/11/21 08:40:36;;;;;;;;;;;15.70;40.00;;;;;;8362455;28;19923;-47
2021/11/21 08:44:37;;;;;;;;;;;15.70;40.00;;;;;;8361848;28;19924;-48
2021/11/21 08:48:37;;;;;;;;;;;15.70;40.00;;;;;;8362164;28;19917;-49
2021/11/21 08:52:38;;;;;;;;;;;15.70;40.00;;;;;;8362148;28;19912;-49
2021/11/21 08:56:38;;;;;;;;;;;15.70;40.00;;;;;;8363996;28;19971;-49
2021/11/21 09:00:39;;;;;;;;;;;15.70;40.10;;;;;;8368015;28;19932;-46
2021/11/21 09:04:39;;;;;;;;;;;15.70;40.00;;;;;;8367606;28;20000;-48
2021/11/21 09:08:40;;;;;;;;;;;15.70;40.10;;;;;;8367023;28;20366;-48
2021/11/21 09:12:41;;;;;;;;;;;15.70;40.10;;;;;;8367648;28;19920;-48
2021/11/21 09:16:42;;;;;;;;;;;15.70;40.10;;;;;;8367462;28;19925;-51
2021/11/21 09:20:43;;;;;;;;;;;15.70;40.10;;;;;;8367079;28;20374;-49
2021/11/21 09:24:43;;;;;;;;;;;15.70;40.60;;;;;;8367406;28;19956;-49
2021/11/21 09:28:44;;;;;;;;;;;15.70;40.10;;;;;;8367029;28;20297;-48
2021/11/21 09:32:44;;;;;;;;;;;15.70;40.10;;;;;;8366405;28;19997;-46
2021/11/21 09:36:45;;;;;;;;;;;15.70;40.10;;;;;;8366662;28;20381;-48
2021/11/21 09:40:46;;;;;;;;;;;15.70;40.10;;;;;;8366831;28;19963;-48
2021/11/21 09:44:47;;;;;;;;;;;15.70;40.10;;;;;;8366138;28;19917;-51
2021/11/21 09:48:47;;;;;;;;;;;15.70;40.10;;;;;;8363556;28;20389;-50
2021/11/21 09:52:49;;;;;;;;;;;15.70;40.10;;;;;;8353071;28;20388;-49
2021/11/21 09:56:49;;;;;;;;;;;15.70;40.20;;;;;;8337496;28;20018;-50
2021/11/21 10:00:50;;;;;;;;;;;15.70;40.50;;;;;;8344575;28;20386;-49
2021/11/21 10:04:52;;;;;;;;;;;15.60;40.60;;;;;;8349355;28;20225;-50
2021/11/21 10:08:52;;;;;;;;;;;15.70;41.00;;;;;;8357195;28;20385;-49
2021/11/21 10:12:53;;;;;;;;;;;15.80;41.00;;;;;;8356227;28;19936;-49
2021/11/21 10:16:53;;;;;;;;;;;15.80;41.10;;;;;;8354582;28;20015;-47
2021/11/21 10:20:55;;;;;;;;;;;15.90;41.10;;;;;;8354875;28;20003;-47
2021/11/21 10:24:55;;;;;;;;;;;16.00;41.10;;;;;;8354737;28;19925;-49
2021/11/21 10:28:56;;;;;;;;;;;16.00;41.30;;;;;;8353912;28;19935;-48
2021/11/21 10:33:01;;;;;;;;;;;16.10;41.30;;;;;;8353192;28;19967;-46
2021/11/21 10:37:08;;;;;;;;;;;16.10;41.40;;;;;;8353809;28;19998;-48
2021/11/21 10:41:11;;;;;;;;;;;16.20;41.50;;;;;;8354085;28;19970;-48
2021/11/21 10:45:12;;;;;;;;;;;16.20;41.50;;;;;;8350779;28;19921;-47
2021/11/21 10:49:13;;;;;;;;;;;16.30;41.80;;;;;;8335601;28;20011;-46
2021/11/21 10:53:13;;;;;;;;;;;16.30;42.00;;;;;;8353259;28;19921;-48
2021/11/21 10:57:16;;;;;;;;;;;16.30;41.80;;;;;;8352850;28;19940;-51
2021/11/21 11:01:26;;;;;;;;;;;16.40;41.80;;;;;;8353413;28;19963;-49
2021/11/21 11:05:27;;;;;;;;;;;16.40;41.90;;;;;;8333180;28;19924;-48
2021/11/21 11:09:30;;;;;;;;;;;16.50;41.80;;;;;;8350903;28;19975;-47
2021/11/21 11:13:30;;;;;;;;;;;16.60;41.90;;;;;;8352719;28;19921;-47
2021/11/21 11:17:31;;;;;;;;;;;16.60;42.00;;;;;;8352638;28;19975;-48
2021/11/21 11:21:32;;;;;;;;;;;16.70;42.00;;;;;;8351959;28;19916;-51
2021/11/21 11:25:32;;;;;;;;;;;16.70;42.20;;;;;;8352429;28;20025;-50
2021/11/21 11:29:38;;;;;;;;;;;16.80;42.00;;;;;;8341068;28;19983;-49
2021/11/21 11:33:41;;;;;;;;;;;16.80;41.90;;;;;;8346472;28;19963;-51
2021/11/21 11:37:47;;;;;;;;;;;16.80;41.80;;;;;;8347096;28;19929;-52
2021/11/21 11:41:47;;;;;;;;;;;16.80;41.90;;;;;;8350769;28;19924;-50
2021/11/21 11:45:49;;;;;;;;;;;16.90;41.90;;;;;;8352248;28;19921;-51
2021/11/21 11:49:50;;;;;;;;;;;16.90;41.90;;;;;;8351934;28;19975;-54
2021/11/21 11:53:51;;;;;;;;;;;16.90;41.80;;;;;;8350136;28;19929;-57
2021/11/21 11:57:52;;;;;;;;;;;16.90;41.80;;;;;;8349890;28;19936;-55
2021/11/21 12:01:54;;;;;;;;;;;17.00;41.90;;;;;;8350787;28;20385;-53
2021/11/21 12:06:05;;;;;;;;;;;17.00;41.90;;;;;;8351180;28;19921;-55
2021/11/21 12:10:05;;;;;;;;;;;17.10;41.90;;;;;;8345634;28;19982;-59
2021/11/21 12:14:25;;;;;;;;;;;17.10;42.00;;;;;;8349917;28;19925;-53
2021/11/21 12:18:45;;;;;;;;;;;17.10;42.00;;;;;;8358525;28;19940;-54
2021/11/21 12:22:45;;;;;;;;;;;17.20;41.90;;;;;;8338119;28;19928;-55
2021/11/21 12:26:46;;;;;;;;;;;17.20;41.80;;;;;;8353843;28;20342;-48
2021/11/21 12:30:47;;;;;;;;;;;17.20;42.00;;;;;;8359727;28;19962;-50
2021/11/21 12:34:49;;;;;;;;;;;17.30;42.10;;;;;;8365217;28;19929;-50
2021/11/21 12:38:49;;;;;;;;;;;17.30;42.00;;;;;;8362001;28;19955;-53
2021/11/21 12:42:57;;;;;;;;;;;17.40;41.90;;;;;;8362501;28;19928;-53
2021/11/21 12:46:59;;;;;;;;;;;17.40;42.00;;;;;;8362546;28;20510;-49
2021/11/21 12:51:04;;;;;;;;;;;17.50;42.10;;;;;;8361779;28;19921;-54
2021/11/21 12:55:04;;;;;;;;;;;17.50;41.80;;;;;;8361226;28;19968;-54
2021/11/21 12:59:06;;;;;;;;;;;17.50;42.00;;;;;;8358892;28;19925;-54
2021/11/21 13:03:11;;;;;;;;;;;17.50;42.00;;;;;;8360660;28;19960;-50
2021/11/21 13:07:21;;;;;;;;;;;17.50;42.00;;;;;;8358547;28;19921;-54
2021/11/21 13:11:23;;;;;;;;;;;17.60;42.10;;;;;;8361019;28;20293;-50
2021/11/21 13:15:25;;;;;;;;;;;17.60;42.00;;;;;;8360977;28;19972;-54
2021/11/21 13:19:25;;;;;;;;;;;17.60;42.00;;;;;;8360881;28;19931;-50
2021/11/21 13:23:26;;;;;;;;;;;17.60;42.00;;;;;;8359879;28;19929;-48
2021/11/21 13:27:26;;;;;;;;;;;17.60;42.00;;;;;;8393018;28;19912;-53
2021/11/21 13:31:32;;;;;;;;;;;17.60;42.20;;;;;;8368001;28;19921;-55
2021/11/21 13:35:33;;;;;;;;;;;17.70;42.20;;;;;;8365826;28;19924;-48
2021/11/21 13:39:34;;;;;;;;;;;17.70;42.10;;;;;;8364887;28;19974;-49
2021/11/21 13:43:36;;;;;;;;;;;17.60;42.00;;;;;;8364605;28;20378;-49
2021/11/21 13:47:36;;;;;;;;;;;17.60;42.00;;;;;;8363110;28;20325;-50
2021/11/21 13:51:37;;;;;;;;;;;17.60;41.90;;;;;;8363160;28;19924;-49
2021/11/21 13:55:37;;;;;;;;;;;17.50;42.40;;;;;;8363056;28;20420;-49
2021/11/21 13:59:39;;;;;;;;;;;17.50;41.80;;;;;;8364747;28;19959;-50
2021/11/21 14:03:41;;;;;;;;;;;17.40;41.80;;;;;;8366351;28;19917;-48
2021/11/21 14:07:55;;;;;;;;;;;17.40;41.80;;;;;;8365335;28;20012;-48
2021/11/21 14:12:01;;;;;;;;;;;17.30;41.80;;;;;;8365719;28;20443;-49
2021/11/21 14:16:05;;;;;;;;;;;17.30;41.80;;;;;;8365723;28;19951;-49
2021/11/21 14:20:07;;;;;;;;;;;17.30;41.80;;;;;;8365586;28;19921;-49
2021/11/21 14:24:08;;;;;;;;;;;17.20;41.80;;;;;;8365062;28;20382;-50
2021/11/21 14:28:10;;;;;;;;;;;17.20;41.70;;;;;;8365344;28;19921;-50
2021/11/21 14:32:14;;;;;;;;;;;17.20;41.80;;;;;;8365491;28;20397;-50
2021/11/21 14:36:14;;;;;;;;;;;17.20;41.70;;;;;;8364481;28;19925;-51
2021/11/21 14:40:19;;;;;;;;;;;17.20;41.70;;;;;;8365062;28;20009;-51
2021/11/21 14:44:19;;;;;;;;;;;17.20;41.70;;;;;;8364874;28;19917;-50
2021/11/21 14:48:27;;;;;;;;;;;17.10;41.70;;;;;;8364304;28;20397;-49
2021/11/21 14:52:27;;;;;;;;;;;17.10;41.70;;;;;;8364889;28;19913;-52
2021/11/21 14:56:28;;;;;;;;;;;17.10;41.70;;;;;;8363904;28;19932;-49
2021/11/21 15:00:29;;;;;;;;;;;17.10;41.70;;;;;;8363933;28;19921;-50
2021/11/21 15:04:30;;;;;;;;;;;17.00;41.60;;;;;;8364409;28;19925;-47
2021/11/21 15:08:30;;;;;;;;;;;17.10;41.60;;;;;;8364314;28;19919;-52
2021/11/21 15:12:31;;;;;;;;;;;17.00;41.60;;;;;;8363826;28;19913;-52
2021/11/21 15:16:31;;;;;;;;;;;17.00;41.60;;;;;;8364082;28;19924;-51
2021/11/21 15:20:32;;;;;;;;;;;17.00;41.60;;;;;;8363592;28;19917;-51
2021/11/21 15:24:33;;;;;;;;;;;17.00;41.60;;;;;;8363105;28;19962;-48
2021/11/21 15:28:34;;;;;;;;;;;17.00;41.60;;;;;;8363546;28;20003;-49
2021/11/21 15:32:34;;;;;;;;;;;16.90;41.50;;;;;;8363335;28;20378;-49
2021/11/21 15:36:34;;;;;;;;;;;17.00;41.60;;;;;;8363680;28;19975;-48
2021/11/21 15:40:35;;;;;;;;;;;16.90;41.50;;;;;;8363549;28;20401;-51
2021/11/21 15:44:35;;;;;;;;;;;16.90;41.50;;;;;;8362769;28;19921;-50
2021/11/21 15:48:36;;;;;;;;;;;16.90;41.50;;;;;;8363139;28;19944;-49
2021/11/21 15:52:36;;;;;;;;;;;16.90;41.50;;;;;;8363428;28;20328;-50
2021/11/21 15:56:37;;;;;;;;;;;16.90;41.50;;;;;;8362581;28;19928;-52
2021/11/21 16:00:38;;;;;;;;;;;16.90;41.50;;;;;;8362879;28;19923;-50
2021/11/21 16:04:40;;;;;;;;;;;16.80;41.50;;;;;;8363017;28;20400;-50
2021/11/21 16:08:40;;;;;;;;;;;16.80;41.50;;;;;;8368595;28;19913;-49
2021/11/21 16:12:42;;;;;;;;;;;16.80;41.50;;;;;;8369723;28;19913;-48
2021/11/21 16:16:42;;;;;;;;;;;16.80;41.50;;;;;;8369374;28;20033;-51
2021/11/21 16:20:43;;;;;;;;;;;16.80;41.50;;;;;;8368872;28;19943;-48
2021/11/21 16:24:43;;;;;;;;;;;16.80;41.50;;;;;;8369481;28;19921;-50
2021/11/21 16:28:45;;;;;;;;;;;16.80;41.50;;;;;;8369277;28;19919;-52
2021/11/21 16:32:46;;;;;;;;;;;16.80;41.50;;;;;;8368753;28;19924;-52
2021/11/21 16:36:52;;;;;;;;;;;16.80;41.50;;;;;;8369184;28;19925;-51
2021/11/21 16:40:53;;;;;;;;;;;16.80;41.50;;;;;;8367778;28;19970;-49
2021/11/21 16:44:54;;;;;;;;;;;16.80;41.50;;;;;;8368338;28;19917;-51
2021/11/21 16:48:55;;;;;;;;;;;16.70;41.50;;;;;;8368681;28;20297;-52
2021/11/21 16:52:58;;;;;;;;;;;16.70;41.50;;;;;;8368580;28;19917;-49
2021/11/21 16:56:59;;;;;;;;;;;16.70;41.50;;;;;;8367793;28;19936;-49
2021/11/21 17:00:59;;;;;;;;;;;16.70;41.40;;;;;;8368530;28;19917;-53
2021/11/21 17:05:00;;;;;;;;;;;16.70;41.50;;;;;;8351481;28;19913;-53
2021/11/21 17:09:02;;;;;;;;;;;16.70;41.40;;;;;;8367749;28;19917;-52
2021/11/21 17:13:03;;;;;;;;;;;16.70;41.40;;;;;;8368086;28;19917;-49
2021/11/21 17:17:03;;;;;;;;;;;16.70;41.40;;;;;;8367184;28;20017;-50
2021/11/21 17:21:04;;;;;;;;;;;16.70;41.40;;;;;;8367293;28;19971;-50
2021/11/21 17:25:07;;;;;;;;;;;16.70;41.40;;;;;;8367530;28;20354;-50
2021/11/21 17:29:07;;;;;;;;;;;16.70;41.40;;;;;;8367478;28;19917;-52
2021/11/21 17:33:08;;;;;;;;;;;16.70;41.40;;;;;;8366928;28;19924;-49
2021/11/21 17:37:08;;;;;;;;;;;16.70;41.40;;;;;;8367095;28;20038;-50
2021/11/21 17:41:10;;;;;;;;;;;16.60;41.40;;;;;;8366863;28;20339;-50
2021/11/21 17:45:11;;;;;;;;;;;16.60;41.30;;;;;;8366528;28;19917;-49
2021/11/21 17:49:11;;;;;;;;;;;16.60;41.40;;;;;;8367235;28;20007;-49
2021/11/21 17:53:12;;;;;;;;;;;16.60;41.40;;;;;;8366721;28;19970;-52
2021/11/21 17:57:13;;;;;;;;;;;16.60;41.40;;;;;;8365968;28;20382;-49
2021/11/21 18:01:13;;;;;;;;;;;16.60;41.30;;;;;;8366439;28;19917;-53
2021/11/21 18:05:14;;;;;;;;;;;16.60;41.40;;;;;;8366245;28;19912;-51
2021/11/21 18:09:15;;;;;;;;;;;16.60;41.40;;;;;;8365863;28;19924;-49
2021/11/21 18:13:16;;;;;;;;;;;16.60;41.30;;;;;;8365904;28;19974;-50
2021/11/21 18:17:17;;;;;;;;;;;16.60;41.30;;;;;;8366045;28;20446;-53
2021/11/21 18:21:17;;;;;;;;;;;16.60;41.30;;;;;;8365372;28;19922;-50
2021/11/21 18:25:18;;;;;;;;;;;16.60;41.30;;;;;;8365733;28;19920;-50
2021/11/21 18:29:18;;;;;;;;;;;16.60;41.30;;;;;;8364818;28;19917;-49
2021/11/21 18:33:19;;;;;;;;;;;16.60;41.30;;;;;;8364761;28;19963;-49
2021/11/21 18:37:19;;;;;;;;;;;16.60;41.30;;;;;;8365367;28;19931;-53
2021/11/21 18:41:20;;;;;;;;;;;16.60;41.30;;;;;;8364957;28;19920;-50
2021/11/21 18:45:20;;;;;;;;;;;16.60;41.30;;;;;;8364446;28;20309;-52
2021/11/21 18:49:21;;;;;;;;;;;16.60;41.30;;;;;;8364972;28;20320;-50
2021/11/21 18:53:23;;;;;;;;;;;16.60;41.30;;;;;;8364607;28;19917;-48
2021/11/21 18:57:35;;;;;;;;;;;16.60;41.30;;;;;;8363902;28;19931;-50
2021/11/21 19:01:35;;;;;;;;;;;16.50;41.30;;;;;;8364830;28;20478;-49
2021/11/21 19:05:36;;;;;;;;;;;16.50;41.30;;;;;;8363889;28;19924;-53
2021/11/21 19:09:37;;;;;;;;;;;16.50;41.30;;;;;;8364304;28;19920;-51
2021/11/21 19:13:37;;;;;;;;;;;16.50;41.30;;;;;;8364097;28;20124;-54
2021/11/21 19:17:39;;;;;;;;;;;16.50;41.30;;;;;;8363466;28;19925;-50
2021/11/21 19:21:39;;;;;;;;;;;16.50;41.20;;;;;;8364168;28;20370;-49
2021/11/21 19:25:40;;;;;;;;;;;16.50;41.20;;;;;;8363988;28;19962;-49
2021/11/21 19:29:40;;;;;;;;;;;16.50;41.20;;;;;;8363561;28;19913;-50
2021/11/21 19:33:41;;;;;;;;;;;16.50;41.20;;;;;;8363766;28;19917;-52
2021/11/21 19:37:41;;;;;;;;;;;16.50;41.20;;;;;;8362055;28;20301;-51
2021/11/21 19:41:42;;;;;;;;;;;16.50;41.20;;;;;;8362993;28;19999;-49
2021/11/21 19:45:42;;;;;;;;;;;16.50;41.20;;;;;;8363588;28;19940;-51
2021/11/21 19:49:43;;;;;;;;;;;16.50;41.20;;;;;;8363688;28;19931;-50
2021/11/21 19:53:43;;;;;;;;;;;16.50;41.10;;;;;;8363040;28;20329;-50
2021/11/21 19:57:44;;;;;;;;;;;16.50;41.10;;;;;;8363650;28;20360;-50
2021/11/21 20:01:45;;;;;;;;;;;16.40;41.00;;;;;;8363150;28;19916;-51
2021/11/21 20:05:45;;;;;;;;;;;16.50;41.10;;;;;;8362628;28;20004;-51
2021/11/21 20:09:46;;;;;;;;;;;16.50;41.10;;;;;;8355655;28;19921;-49
2021/11/21 20:13:52;;;;;;;;;;;16.40;41.00;;;;;;8358995;28;19956;-51
2021/11/21 20:17:53;;;;;;;;;;;16.40;41.00;;;;;;8362635;28;19933;-50
2021/11/21 20:21:54;;;;;;;;;;;16.40;41.00;;;;;;8363034;28;19916;-51
2021/11/21 20:25:54;;;;;;;;;;;16.40;41.00;;;;;;8362787;28;19940;-50
2021/11/21 20:29:55;;;;;;;;;;;16.40;41.00;;;;;;8362506;28;19917;-53
2021/11/21 20:38:15;;;;;;;;;;;16.40;41.00;;;;;;8366139;28;19940;-52
2021/11/21 20:42:16;;;;;;;;;;;16.40;41.00;;;;;;8362191;28;19921;-47
2021/11/21 20:46:16;;;;;;;;;;;16.40;41.00;;;;;;8362652;28;20449;-50
2021/11/21 20:50:20;;;;;;;;;;;16.40;41.00;;;;;;8362751;28;19916;-49
2021/11/21 20:54:20;;;;;;;;;;;16.40;41.00;;;;;;8366830;28;19917;-49
2021/11/21 20:58:21;;;;;;;;;;;16.40;41.00;;;;;;8368203;28;19925;-48
2021/11/21 21:02:21;;;;;;;;;;;16.40;41.00;;;;;;8368106;28;19917;-49
2021/11/21 21:06:22;;;;;;;;;;;16.40;41.00;;;;;;8367710;28;19923;-49
2021/11/21 21:10:23;;;;;;;;;;;16.40;41.00;;;;;;8368256;28;19995;-49
2021/11/21 21:14:23;;;;;;;;;;;16.40;41.00;;;;;;8367940;28;19997;-48
2021/11/21 21:18:24;;;;;;;;;;;16.40;41.00;;;;;;8367271;28;19924;-49
2021/11/21 21:22:24;;;;;;;;;;;16.40;41.00;;;;;;8367836;28;19924;-49
2021/11/21 21:26:25;;;;;;;;;;;16.40;41.00;;;;;;8367487;28;19955;-48
2021/11/21 21:30:26;;;;;;;;;;;16.40;41.00;;;;;;8367177;28;20317;-49
2021/11/21 21:34:27;;;;;;;;;;;16.30;40.90;;;;;;8367458;28;19916;-49
2021/11/21 21:38:28;;;;;;;;;;;16.40;40.90;;;;;;8366923;28;20015;-49
2021/11/21 21:42:29;;;;;;;;;;;16.40;40.90;;;;;;8366447;28;19975;-51
2021/11/21 21:46:30;;;;;;;;;;;16.30;40.90;;;;;;8367053;28;19920;-51
2021/11/21 21:50:32;;;;;;;;;;;16.40;40.90;;;;;;8366959;28;20446;-52
2021/11/21 21:54:32;;;;;;;;;;;16.30;41.40;;;;;;8366211;28;20275;-50
2021/11/21 21:58:34;;;;;;;;;;;16.40;40.90;;;;;;8366315;28;19925;-49
2021/11/21 22:02:35;;;;;;;;;;;16.40;40.90;;;;;;8365469;28;19917;-49
2021/11/21 22:06:38;;;;;;;;;;;16.30;40.90;;;;;;8365550;28;20393;-50
2021/11/21 22:10:39;;;;;;;;;;;16.30;40.80;;;;;;8366464;28;20423;-49
2021/11/21 22:14:39;;;;;;;;;;;16.30;40.90;;;;;;8365586;28;20278;-51
2021/11/21 22:18:40;;;;;;;;;;;16.30;41.10;;;;;;8366186;28;19923;-49
2021/11/21 22:22:40;;;;;;;;;;;16.30;40.90;;;;;;8365999;28;19921;-48
2021/11/21 22:26:41;;;;;;;;;;;16.30;40.90;;;;;;8365114;28;19962;-48
2021/11/21 22:30:42;;;;;;;;;;;16.30;40.90;;;;;;8365774;28;19962;-49
2021/11/21 22:34:42;;;;;;;;;;;16.30;40.90;;;;;;8365141;28;19917;-50
2021/11/21 22:38:42;;;;;;;;;;;16.30;40.80;;;;;;8364884;28;20341;-49
2021/11/21 22:42:43;;;;;;;;;;;16.30;40.80;;;;;;8365458;28;19916;-49
2021/11/21 22:46:45;;;;;;;;;;;16.30;40.80;;;;;;8365070;28;20019;-51
2021/11/21 22:50:46;;;;;;;;;;;16.30;40.90;;;;;;8364813;28;20432;-49
2021/11/21 22:54:46;;;;;;;;;;;16.30;40.80;;;;;;8364989;28;19924;-50
2021/11/21 22:58:47;;;;;;;;;;;16.30;40.80;;;;;;8364496;28;19920;-50
2021/11/21 23:02:48;;;;;;;;;;;16.30;40.80;;;;;;8363484;28;19916;-48
2021/11/21 23:06:49;;;;;;;;;;;16.30;40.80;;;;;;8360719;28;20273;-49
2021/11/21 23:10:49;;;;;;;;;;;16.20;40.80;;;;;;8364612;28;19971;-50
2021/11/21 23:14:50;;;;;;;;;;;16.20;40.80;;;;;;8363213;28;20362;-49
2021/11/21 23:18:51;;;;;;;;;;;16.20;40.80;;;;;;8364353;28;19921;-48
2021/11/21 23:22:52;;;;;;;;;;;16.30;40.80;;;;;;8364137;28;19963;-48
2021/11/21 23:26:53;;;;;;;;;;;16.20;40.70;;;;;;8363572;28;19935;-49